Time;durP1;ratioP1;P1;durP2;ratioP2;P2;SDS_P1;SDS_P2;PMS_P1;PMS_P2;Temp;Humidity;BMP_temperature;BMP_pressure;BME280_temperature;BME280_humidity;BME280_pressure;Samples;Min_cycle;Max_cycle;Signal;HPM_P1;HPM_P2
2023/11/07 00:01:26;;;;;;;3.90;1.00;;;11.00;99.90;;;;;;5119837;28;20452;-61
2023/11/07 00:03:53;;;;;;;2.87;1.17;;;11.00;99.90;;;;;;5116203;28;20452;-61
2023/11/07 00:06:20;;;;;;;1.77;1.10;;;11.00;99.90;;;;;;5112353;28;20453;-59
2023/11/07 00:08:47;;;;;;;2.27;1.10;;;11.00;99.90;;;;;;5118677;28;20488;-60
2023/11/07 00:11:15;;;;;;;1.57;0.90;;;11.00;99.90;;;;;;5118050;28;20513;-62
2023/11/07 00:13:42;;;;;;;1.00;0.80;;;11.10;99.90;;;;;;5112237;28;20549;-61
2023/11/07 00:16:11;;;;;;;1.23;0.87;;;11.10;99.90;;;;;;5106852;28;20471;-58
2023/11/07 00:18:39;;;;;;;2.07;0.97;;;11.10;99.90;;;;;;5118664;28;20513;-59
2023/11/07 00:21:07;;;;;;;2.80;1.30;;;11.00;99.90;;;;;;5118356;28;20455;-59
2023/11/07 00:23:34;;;;;;;2.60;1.13;;;11.00;99.90;;;;;;5118713;28;20441;-58
2023/11/07 00:26:01;;;;;;;2.00;1.10;;;11.00;99.90;;;;;;5113369;28;20497;-61
2023/11/07 00:28:30;;;;;;;1.60;1.10;;;10.90;99.90;;;;;;5097492;28;20522;-61
2023/11/07 00:30:57;;;;;;;1.57;1.10;;;10.90;99.90;;;;;;5098854;28;20530;-59
2023/11/07 00:33:24;;;;;;;2.27;1.20;;;10.80;99.90;;;;;;5104093;28;20441;-60
2023/11/07 00:35:51;;;;;;;1.73;1.03;;;10.80;99.90;;;;;;5116030;28;20480;-59
2023/11/07 00:38:18;;;;;;;2.20;1.40;;;10.80;99.90;;;;;;5104557;28;20438;-60
2023/11/07 00:40:45;;;;;;;3.20;1.40;;;10.80;99.90;;;;;;5116792;28;20461;-58
2023/11/07 00:43:12;;;;;;;1.27;0.93;;;10.70;99.90;;;;;;5118139;28;20430;-60
2023/11/07 00:45:40;;;;;;;2.17;1.20;;;10.70;99.90;;;;;;5117442;28;20433;-59
2023/11/07 00:48:07;;;;;;;1.37;0.83;;;10.60;99.90;;;;;;5116467;28;20453;-57
2023/11/07 00:50:34;;;;;;;1.73;0.90;;;10.60;99.90;;;;;;5106375;28;20466;-52
2023/11/07 00:53:01;;;;;;;1.40;0.97;;;10.70;99.90;;;;;;5097653;28;20490;-54
2023/11/07 00:55:28;;;;;;;2.73;1.20;;;10.80;99.90;;;;;;5099982;28;20453;-55
2023/11/07 00:57:55;;;;;;;1.67;1.00;;;10.70;99.90;;;;;;5091378;28;20442;-53
2023/11/07 01:00:22;;;;;;;1.90;0.97;;;10.70;99.90;;;;;;5094098;28;20715;-56
2023/11/07 01:02:50;;;;;;;1.63;0.93;;;10.60;99.90;;;;;;5080439;28;20446;-56
2023/11/07 01:05:18;;;;;;;4.73;1.03;;;10.50;99.90;;;;;;5077789;28;20545;-54
2023/11/07 01:07:45;;;;;;;3.60;0.90;;;10.50;99.90;;;;;;5098258;28;20438;-54
2023/11/07 01:10:13;;;;;;;2.00;1.20;;;10.50;99.90;;;;;;5079776;28;20780;-55
2023/11/07 01:12:40;;;;;;;1.73;1.00;;;10.50;99.90;;;;;;5117267;28;20519;-49
2023/11/07 01:15:07;;;;;;;3.13;1.10;;;10.40;99.90;;;;;;5108727;28;20973;-57
2023/11/07 01:17:34;;;;;;;1.47;1.10;;;10.40;99.90;;;;;;5096780;28;20505;-54
2023/11/07 01:20:03;;;;;;;2.33;1.20;;;10.30;99.90;;;;;;5116679;28;20453;-51
2023/11/07 01:22:31;;;;;;;3.63;0.90;;;10.30;99.90;;;;;;5118273;28;20516;-56
2023/11/07 01:24:58;;;;;;;2.00;0.97;;;10.30;99.90;;;;;;5117610;28;20471;-53
2023/11/07 01:27:25;;;;;;;1.47;0.90;;;10.30;99.90;;;;;;5099248;28;20564;-56
2023/11/07 01:29:52;;;;;;;1.20;0.83;;;10.30;99.90;;;;;;5120382;28;20441;-53
2023/11/07 01:32:20;;;;;;;1.17;0.80;;;10.20;99.90;;;;;;5101846;28;20527;-56
2023/11/07 01:34:47;;;;;;;1.17;0.90;;;10.20;99.90;;;;;;5096193;28;20923;-57
2023/11/07 01:37:15;;;;;;;1.20;0.87;;;10.20;99.90;;;;;;5096351;28;20546;-54
2023/11/07 01:39:42;;;;;;;2.83;1.30;;;10.20;99.90;;;;;;5096206;28;20448;-59
2023/11/07 01:42:09;;;;;;;1.43;1.30;;;10.20;99.90;;;;;;5116785;28;20476;-48
2023/11/07 01:44:37;;;;;;;3.43;1.30;;;10.20;99.90;;;;;;5109314;28;20531;-59
2023/11/07 01:47:04;;;;;;;3.53;1.00;;;10.10;99.90;;;;;;5100549;28;20462;-57
2023/11/07 01:49:31;;;;;;;2.80;0.97;;;10.10;99.90;;;;;;5116951;28;20465;-61
2023/11/07 01:51:58;;;;;;;2.23;1.00;;;10.10;99.90;;;;;;5115306;28;20477;-60
2023/11/07 01:54:28;;;;;;;1.67;0.90;;;10.00;99.90;;;;;;5115980;28;20779;-61
2023/11/07 01:56:55;;;;;;;1.17;1.07;;;10.00;99.90;;;;;;5096451;28;20438;-61
2023/11/07 01:59:23;;;;;;;1.80;1.30;;;9.90;99.90;;;;;;5096929;28;20454;-57
2023/11/07 02:01:53;;;;;;;2.20;0.93;;;10.00;99.90;;;;;;5096595;28;20446;-60
2023/11/07 02:04:22;;;;;;;1.97;1.13;;;9.90;99.90;;;;;;5096302;28;20441;-60
2023/11/07 02:06:48;;;;;;;3.60;1.17;;;9.90;99.90;;;;;;5103900;28;20480;-59
2023/11/07 02:09:16;;;;;;;1.37;0.87;;;9.90;99.90;;;;;;5116875;28;20464;-61
2023/11/07 02:11:45;;;;;;;1.00;0.77;;;9.90;99.90;;;;;;5116103;28;20477;-61
2023/11/07 02:14:26;;;;;;;1.00;0.80;;;9.80;99.90;;;;;;5106517;28;20824;-61
2023/11/07 02:16:53;;;;;;;2.83;0.93;;;9.80;99.90;;;;;;5100299;28;20468;-60
2023/11/07 02:19:20;;;;;;;2.23;1.30;;;9.80;99.90;;;;;;5116694;28;20476;-60
2023/11/07 02:21:47;;;;;;;1.83;0.80;;;9.70;99.90;;;;;;5115117;28;20504;-58
2023/11/07 02:24:16;;;;;;;2.83;1.27;;;9.70;99.90;;;;;;5117064;28;20452;-58
2023/11/07 02:26:42;;;;;;;2.73;1.00;;;9.70;99.90;;;;;;5101954;28;20489;-61
2023/11/07 02:29:09;;;;;;;2.43;0.90;;;9.70;99.90;;;;;;5113336;28;20463;-60
2023/11/07 02:31:36;;;;;;;1.67;0.90;;;9.70;99.90;;;;;;5116423;28;20472;-60
2023/11/07 02:34:05;;;;;;;1.00;0.80;;;9.60;99.90;;;;;;5116721;28;20457;-61
2023/11/07 02:36:34;;;;;;;2.20;0.90;;;9.60;99.90;;;;;;5099167;28;20469;-61
2023/11/07 02:39:01;;;;;;;8.23;1.30;;;9.70;99.90;;;;;;5099936;28;20464;-58
2023/11/07 02:41:30;;;;;;;1.23;0.80;;;9.70;99.90;;;;;;5114114;28;20468;-59
2023/11/07 02:43:57;;;;;;;3.40;1.03;;;9.70;99.90;;;;;;5116625;28;20412;-58
2023/11/07 02:46:24;;;;;;;2.13;1.00;;;9.70;99.90;;;;;;5109050;28;20445;-59
2023/11/07 02:48:50;;;;;;;1.60;1.03;;;9.70;99.90;;;;;;5098631;28;20759;-60
2023/11/07 02:51:18;;;;;;;1.40;1.03;;;9.70;99.90;;;;;;5081346;28;20530;-59
2023/11/07 02:53:46;;;;;;;1.70;1.13;;;9.70;99.90;;;;;;5085239;28;20486;-60
2023/11/07 02:56:14;;;;;;;1.57;0.90;;;9.70;99.90;;;;;;5082217;28;20792;-61
2023/11/07 02:58:42;;;;;;;1.60;1.17;;;9.70;99.90;;;;;;5099908;28;20459;-61
2023/11/07 03:01:09;;;;;;;2.03;1.17;;;9.70;99.90;;;;;;5101504;28;20458;-60
2023/11/07 03:03:35;;;;;;;1.60;0.90;;;9.70;99.90;;;;;;5106797;28;20489;-61
2023/11/07 03:06:02;;;;;;;2.17;1.07;;;9.70;99.90;;;;;;5096972;28;20529;-59
2023/11/07 03:08:29;;;;;;;2.13;1.23;;;9.70;99.90;;;;;;5111163;28;20445;-59
2023/11/07 03:10:56;;;;;;;1.20;0.90;;;9.70;99.90;;;;;;5114077;28;20488;-58
2023/11/07 03:13:23;;;;;;;1.53;1.13;;;9.70;99.90;;;;;;5115600;28;20485;-60
2023/11/07 03:15:51;;;;;;;1.53;0.80;;;9.70;99.90;;;;;;5100222;28;20473;-60
2023/11/07 03:18:18;;;;;;;2.70;1.40;;;9.70;99.90;;;;;;5115630;28;20454;-57
2023/11/07 03:20:45;;;;;;;1.20;0.93;;;9.60;99.90;;;;;;5115425;28;20464;-60
2023/11/07 03:23:12;;;;;;;2.40;1.40;;;9.60;99.90;;;;;;5115279;28;20468;-59
2023/11/07 03:25:39;;;;;;;2.60;1.37;;;9.60;99.90;;;;;;5105186;28;20470;-58
2023/11/07 03:28:05;;;;;;;1.70;0.93;;;9.60;99.90;;;;;;5100622;28;20552;-61
2023/11/07 03:30:32;;;;;;;1.50;0.80;;;9.60;99.90;;;;;;5115054;28;20426;-59
2023/11/07 03:33:00;;;;;;;3.50;1.00;;;9.60;99.90;;;;;;5115372;28;20516;-57
2023/11/07 03:35:29;;;;;;;3.37;0.97;;;9.60;99.90;;;;;;5098958;28;20488;-60
2023/11/07 03:37:56;;;;;;;1.30;0.80;;;9.60;99.90;;;;;;5113505;28;20460;-59
2023/11/07 03:40:23;;;;;;;2.30;1.10;;;9.60;99.90;;;;;;5114675;28;20506;-62
2023/11/07 03:42:50;;;;;;;3.80;1.23;;;9.60;99.90;;;;;;5115377;28;20461;-57
2023/11/07 03:45:17;;;;;;;5.97;1.07;;;9.60;99.90;;;;;;5114160;28;20456;-59
2023/11/07 03:47:43;;;;;;;1.10;0.73;;;9.60;99.90;;;;;;5112891;28;20462;-61
2023/11/07 03:50:12;;;;;;;1.30;0.90;;;9.50;99.90;;;;;;5111158;28;20430;-60
2023/11/07 03:52:39;;;;;;;1.60;0.90;;;9.50;99.90;;;;;;5114890;28;20477;-60
2023/11/07 03:55:06;;;;;;;1.77;1.27;;;9.50;99.90;;;;;;5113183;28;20459;-61
2023/11/07 03:57:33;;;;;;;1.97;1.10;;;9.50;99.90;;;;;;5109781;28;20472;-60
2023/11/07 04:00:00;;;;;;;1.23;1.00;;;9.50;99.90;;;;;;5114926;28;20473;-54
2023/11/07 04:02:27;;;;;;;2.80;1.30;;;9.50;99.90;;;;;;5115501;28;20441;-59
2023/11/07 04:04:54;;;;;;;5.40;1.30;;;9.50;99.90;;;;;;5115145;28;20453;-60
2023/11/07 04:07:22;;;;;;;2.60;1.00;;;9.50;99.90;;;;;;5115788;28;20433;-64
2023/11/07 04:09:49;;;;;;;3.10;1.00;;;9.50;99.90;;;;;;5115597;28;20511;-59
2023/11/07 04:12:16;;;;;;;5.73;1.40;;;9.50;99.90;;;;;;5114933;28;20469;-60
2023/11/07 04:14:45;;;;;;;4.20;1.80;;;9.50;99.90;;;;;;5114424;28;20441;-60
2023/11/07 04:17:12;;;;;;;1.50;1.00;;;9.50;99.90;;;;;;5115523;28;20513;-59
2023/11/07 04:19:38;;;;;;;1.57;1.10;;;9.40;99.90;;;;;;5115037;28;20441;-57
2023/11/07 04:22:07;;;;;;;6.13;1.17;;;9.40;99.90;;;;;;5117882;28;20465;-61
2023/11/07 04:24:37;;;;;;;2.67;1.00;;;9.40;99.90;;;;;;5119141;28;20442;-59
2023/11/07 04:27:04;;;;;;;1.30;1.17;;;9.40;99.90;;;;;;5117528;28;20517;-57
2023/11/07 04:29:31;;;;;;;1.27;0.93;;;9.40;99.90;;;;;;5117761;28;20509;-61
2023/11/07 04:31:58;;;;;;;3.23;1.33;;;9.40;99.90;;;;;;5118279;28;20457;-60
2023/11/07 04:34:25;;;;;;;1.83;1.07;;;9.40;99.90;;;;;;5117627;28;20468;-60
2023/11/07 04:36:53;;;;;;;1.80;1.13;;;9.40;99.90;;;;;;5118189;28;20473;-59
2023/11/07 04:39:20;;;;;;;1.63;1.00;;;9.40;99.90;;;;;;5117847;28;20449;-59
2023/11/07 04:41:48;;;;;;;3.43;0.93;;;9.40;99.90;;;;;;5101110;28;20453;-61
2023/11/07 04:44:15;;;;;;;3.23;1.10;;;9.40;99.90;;;;;;5102065;28;20801;-59
2023/11/07 04:46:43;;;;;;;1.50;1.17;;;9.40;99.90;;;;;;5102389;28;20505;-60
2023/11/07 04:49:10;;;;;;;4.60;1.17;;;9.40;99.90;;;;;;5107591;28;20446;-58
2023/11/07 04:51:37;;;;;;;2.33;2.13;;;9.40;99.90;;;;;;5117601;28;20425;-61
2023/11/07 04:54:04;;;;;;;2.50;1.20;;;9.40;99.90;;;;;;5117750;28;20469;-58
2023/11/07 04:56:32;;;;;;;2.03;1.23;;;9.30;99.90;;;;;;5108411;28;20485;-60
2023/11/07 04:59:00;;;;;;;2.30;1.07;;;9.30;99.90;;;;;;5117367;28;20568;-60
2023/11/07 05:01:27;;;;;;;2.70;1.23;;;9.30;99.90;;;;;;5117202;28;20959;-59
2023/11/07 05:03:54;;;;;;;3.23;1.10;;;9.30;99.90;;;;;;5117594;28;20421;-60
2023/11/07 05:06:21;;;;;;;2.87;1.10;;;9.30;99.90;;;;;;5117289;28;20447;-58
2023/11/07 05:08:48;;;;;;;3.00;1.30;;;9.30;99.90;;;;;;5118008;28;20453;-59
2023/11/07 05:11:17;;;;;;;1.53;1.17;;;9.20;99.90;;;;;;5116619;28;20492;-60
2023/11/07 05:13:44;;;;;;;3.03;1.53;;;9.30;99.90;;;;;;5111279;28;20481;-60
2023/11/07 05:16:13;;;;;;;6.10;1.23;;;9.20;99.90;;;;;;5106405;28;20450;-57
2023/11/07 05:18:39;;;;;;;2.30;1.37;;;9.20;99.90;;;;;;5118012;28;20445;-54
2023/11/07 05:21:07;;;;;;;13.13;1.50;;;9.10;99.90;;;;;;5107973;28;20542;-60
2023/11/07 05:23:35;;;;;;;2.47;1.03;;;9.20;99.90;;;;;;5106565;28;20469;-57
2023/11/07 05:26:03;;;;;;;3.50;1.60;;;9.20;99.90;;;;;;5117847;28;20468;-61
2023/11/07 05:28:29;;;;;;;1.50;1.17;;;9.20;99.90;;;;;;5115989;28;20457;-61
2023/11/07 05:30:56;;;;;;;1.10;0.97;;;9.20;99.90;;;;;;5115714;28;20509;-61
2023/11/07 05:33:24;;;;;;;3.57;1.20;;;9.20;99.90;;;;;;5116761;28;20504;-59
2023/11/07 05:35:51;;;;;;;2.50;1.00;;;9.20;99.90;;;;;;5117734;28;20458;-60
2023/11/07 05:38:18;;;;;;;1.53;0.87;;;9.20;99.90;;;;;;5116809;28;20469;-60
2023/11/07 05:40:45;;;;;;;1.40;1.30;;;9.20;99.90;;;;;;5113664;28;20476;-60
2023/11/07 05:43:12;;;;;;;2.70;1.33;;;9.30;99.90;;;;;;5106793;28;20473;-58
2023/11/07 05:45:39;;;;;;;1.70;0.97;;;9.30;99.90;;;;;;5117523;28;20442;-58
2023/11/07 05:48:06;;;;;;;1.40;1.07;;;9.30;99.90;;;;;;5107453;28;20505;-58
2023/11/07 05:50:34;;;;;;;2.00;1.30;;;9.30;99.90;;;;;;5117002;28;20472;-59
2023/11/07 05:53:04;;;;;;;1.73;1.00;;;9.30;99.90;;;;;;5116255;28;20500;-59
2023/11/07 05:55:31;;;;;;;2.10;1.10;;;9.30;99.90;;;;;;5115894;28;20479;-60
2023/11/07 05:57:58;;;;;;;4.03;1.20;;;9.30;99.90;;;;;;5115814;28;20457;-59
2023/11/07 06:00:24;;;;;;;1.90;1.30;;;9.30;99.90;;;;;;5117078;28;20520;-58
2023/11/07 06:02:52;;;;;;;1.87;1.00;;;9.30;99.90;;;;;;5116778;28;20453;-61
2023/11/07 06:05:20;;;;;;;1.40;1.00;;;9.30;99.90;;;;;;5116183;28;20471;-59
2023/11/07 06:07:54;;;;;;;1.90;1.40;;;9.30;99.90;;;;;;5116525;28;20446;-61
2023/11/07 06:10:21;;;;;;;2.50;1.40;;;9.30;99.90;;;;;;5116410;28;20445;-57
2023/11/07 06:12:47;;;;;;;4.77;1.47;;;9.30;99.90;;;;;;5115478;28;20496;-61
2023/11/07 06:15:15;;;;;;;2.40;1.20;;;9.30;99.90;;;;;;5115690;28;20469;-56
2023/11/07 06:17:41;;;;;;;2.00;1.37;;;9.30;99.90;;;;;;5116242;28;20493;-59
2023/11/07 06:20:09;;;;;;;3.73;2.00;;;9.20;99.90;;;;;;5116096;28;20505;-59
2023/11/07 06:22:36;;;;;;;3.37;1.90;;;9.20;99.90;;;;;;5116206;28;20451;-59
2023/11/07 06:25:06;;;;;;;2.67;1.80;;;9.20;99.90;;;;;;5116010;28;20501;-58
2023/11/07 06:27:33;;;;;;;3.77;2.20;;;9.20;99.90;;;;;;5114744;28;20439;-57
2023/11/07 06:30:00;;;;;;;3.67;2.27;;;9.10;99.90;;;;;;5116581;28;20837;-59
2023/11/07 06:32:27;;;;;;;7.90;1.83;;;9.10;99.90;;;;;;5116778;28;20456;-58
2023/11/07 06:34:54;;;;;;;3.03;1.93;;;9.20;99.90;;;;;;5117007;28;20489;-59
2023/11/07 06:37:21;;;;;;;3.60;1.53;;;9.20;99.90;;;;;;5116749;28;20492;-54
2023/11/07 06:39:49;;;;;;;2.33;1.60;;;9.10;99.90;;;;;;5116508;28;20472;-59
2023/11/07 06:42:18;;;;;;;2.27;1.57;;;9.10;99.90;;;;;;5115827;28;20442;-55
2023/11/07 06:44:45;;;;;;;1.60;1.27;;;9.10;99.90;;;;;;5113132;28;20450;-55
2023/11/07 06:47:12;;;;;;;3.63;1.63;;;9.10;99.90;;;;;;5115670;28;20488;-56
2023/11/07 06:49:39;;;;;;;6.90;2.43;;;9.10;99.90;;;;;;5116072;28;20476;-58
2023/11/07 06:52:06;;;;;;;5.60;2.70;;;9.20;99.90;;;;;;5116863;28;20434;-59
2023/11/07 06:54:33;;;;;;;9.43;2.03;;;9.10;99.90;;;;;;5115963;28;20567;-57
2023/11/07 06:57:00;;;;;;;2.47;2.23;;;9.20;99.90;;;;;;5111747;28;20456;-59
2023/11/07 06:59:31;;;;;;;2.93;1.77;;;9.20;99.90;;;;;;5116610;28;20472;-58
2023/11/07 07:01:58;;;;;;;4.00;1.70;;;9.20;99.90;;;;;;5099572;28;20477;-60
2023/11/07 07:04:25;;;;;;;4.17;1.90;;;9.30;99.90;;;;;;5116454;28;20477;-56
2023/11/07 07:06:52;;;;;;;4.70;1.60;;;9.40;99.90;;;;;;5115826;28;20459;-56
2023/11/07 07:09:19;;;;;;;3.30;1.53;;;9.40;99.90;;;;;;5114152;28;20421;-60
2023/11/07 07:11:47;;;;;;;5.90;2.87;;;9.30;99.90;;;;;;5113006;28;20477;-57
2023/11/07 07:14:15;;;;;;;5.40;2.37;;;9.30;99.90;;;;;;5112632;28;20507;-61
2023/11/07 07:16:46;;;;;;;7.00;2.93;;;9.30;99.90;;;;;;5114447;28;20468;-59
2023/11/07 07:19:17;;;;;;;5.17;2.10;;;9.30;99.90;;;;;;5114960;28;20421;-60
2023/11/07 07:21:44;;;;;;;2.33;1.50;;;9.40;99.90;;;;;;5113945;28;20499;-59
2023/11/07 07:24:15;;;;;;;3.90;2.10;;;9.40;99.90;;;;;;5114728;28;20457;-56
2023/11/07 07:26:43;;;;;;;3.50;2.00;;;9.40;99.90;;;;;;5112757;28;20465;-60
2023/11/07 07:29:13;;;;;;;3.20;2.10;;;9.40;99.90;;;;;;5102452;28;20457;-58
2023/11/07 07:31:39;;;;;;;4.77;2.47;;;9.40;99.90;;;;;;5115263;28;20444;-59
2023/11/07 07:34:08;;;;;;;2.90;1.50;;;9.40;99.90;;;;;;5114851;28;20537;-61
2023/11/07 07:36:43;;;;;;;1.77;1.37;;;9.50;99.90;;;;;;5115831;28;20456;-61
2023/11/07 07:39:18;;;;;;;5.60;1.73;;;9.50;99.90;;;;;;5114504;28;20532;-59
2023/11/07 07:41:48;;;;;;;4.50;1.93;;;9.50;99.90;;;;;;5114423;28;20445;-58
2023/11/07 07:44:15;;;;;;;3.10;1.43;;;9.60;99.90;;;;;;5113411;28;20506;-58
2023/11/07 07:46:44;;;;;;;2.10;1.70;;;9.60;99.90;;;;;;5115092;28;20446;-56
2023/11/07 07:49:14;;;;;;;5.20;1.80;;;9.70;99.90;;;;;;5115529;28;20516;-60
2023/11/07 07:51:45;;;;;;;1.50;1.40;;;9.70;99.90;;;;;;5115082;28;20499;-58
2023/11/07 07:54:12;;;;;;;2.10;1.70;;;9.80;99.90;;;;;;5113435;28;20746;-58
2023/11/07 07:56:39;;;;;;;7.30;2.10;;;9.80;99.90;;;;;;5117426;28;20472;-60
2023/11/07 07:59:09;;;;;;;2.33;1.37;;;9.90;99.90;;;;;;5118706;28;20441;-61
2023/11/07 08:01:36;;;;;;;1.83;1.43;;;10.00;99.90;;;;;;5117368;28;20450;-59
2023/11/07 08:04:03;;;;;;;1.60;1.07;;;10.10;99.90;;;;;;5116580;28;20473;-58
2023/11/07 08:06:31;;;;;;;2.50;1.60;;;10.10;99.90;;;;;;5118317;28;20487;-61
2023/11/07 08:08:59;;;;;;;2.50;1.37;;;10.10;99.90;;;;;;5118046;28;20477;-57
2023/11/07 08:11:26;;;;;;;3.00;1.53;;;10.20;99.90;;;;;;5114325;28;20468;-61
2023/11/07 08:13:54;;;;;;;2.93;1.50;;;10.30;99.90;;;;;;5096631;28;20496;-59
2023/11/07 08:16:21;;;;;;;1.83;1.23;;;10.30;99.90;;;;;;5105963;28;20445;-60
2023/11/07 08:18:48;;;;;;;1.47;1.23;;;10.30;99.90;;;;;;5096719;28;20456;-60
2023/11/07 08:21:18;;;;;;;2.47;1.30;;;10.40;99.90;;;;;;5114963;28;20496;-59
2023/11/07 08:23:47;;;;;;;3.03;1.60;;;10.40;99.90;;;;;;5115461;28;20476;-61
2023/11/07 08:26:14;;;;;;;1.47;1.37;;;10.40;99.90;;;;;;5090175;28;20449;-59
2023/11/07 08:28:43;;;;;;;1.60;1.00;;;10.50;99.90;;;;;;5093489;28;20439;-60
2023/11/07 08:31:11;;;;;;;1.50;1.33;;;10.50;99.90;;;;;;5099033;28;20455;-58
2023/11/07 08:33:39;;;;;;;2.57;1.60;;;10.60;99.90;;;;;;5118466;28;20504;-60
2023/11/07 08:36:09;;;;;;;6.90;1.60;;;10.60;99.90;;;;;;5117997;28;20442;-59
2023/11/07 08:38:36;;;;;;;1.63;0.93;;;10.70;99.90;;;;;;5113330;28;20480;-60
2023/11/07 08:41:05;;;;;;;2.27;1.30;;;10.80;99.90;;;;;;5109647;28;20482;-59
2023/11/07 08:43:34;;;;;;;5.03;2.07;;;10.80;99.90;;;;;;5105626;28;20459;-60
2023/11/07 08:46:01;;;;;;;7.70;5.00;;;10.90;99.90;;;;;;5095836;28;20512;-62
2023/11/07 08:48:28;;;;;;;2.80;1.10;;;11.00;99.90;;;;;;5116446;28;20445;-58
2023/11/07 08:50:55;;;;;;;4.33;1.50;;;11.00;99.90;;;;;;5104452;28;20446;-58
2023/11/07 08:53:22;;;;;;;1.87;1.13;;;11.10;99.90;;;;;;5117719;28;20445;-59
2023/11/07 08:55:51;;;;;;;1.87;1.27;;;11.10;99.90;;;;;;5099830;28;21118;-61
2023/11/07 08:58:20;;;;;;;1.50;1.23;;;11.20;99.90;;;;;;5117156;28;20493;-61
2023/11/07 09:00:51;;;;;;;3.30;1.30;;;11.20;99.90;;;;;;5107204;28;20525;-59
2023/11/07 09:03:18;;;;;;;1.10;0.90;;;11.30;99.90;;;;;;5110069;28;20449;-59
2023/11/07 09:05:46;;;;;;;1.80;1.27;;;11.40;99.90;;;;;;5098984;28;20477;-56
2023/11/07 09:08:13;;;;;;;2.90;1.20;;;11.40;99.90;;;;;;5107856;28;20492;-53
2023/11/07 09:10:40;;;;;;;1.73;1.17;;;11.50;99.90;;;;;;5117556;28;20469;-60
2023/11/07 09:13:07;;;;;;;1.60;1.00;;;11.70;99.90;;;;;;5094791;28;20521;-62
2023/11/07 09:15:36;;;;;;;2.13;1.17;;;11.90;99.90;;;;;;5089280;28;20477;-61
2023/11/07 09:18:03;;;;;;;2.80;1.47;;;12.00;99.90;;;;;;5110916;28;20469;-58
2023/11/07 09:20:30;;;;;;;4.47;2.40;;;12.10;99.90;;;;;;5104476;28;20449;-59
2023/11/07 09:22:57;;;;;;;6.90;3.60;;;12.40;99.90;;;;;;5107024;28;20450;-58
2023/11/07 09:25:24;;;;;;;2.57;1.10;;;13.30;99.90;;;;;;5107715;28;20450;-60
2023/11/07 09:27:51;;;;;;;1.57;1.37;;;14.20;99.90;;;;;;5107719;28;20445;-58
2023/11/07 09:30:19;;;;;;;3.53;2.70;;;15.30;99.90;;;;;;5110318;28;20497;-59
2023/11/07 09:32:48;;;;;;;1.93;1.30;;;15.90;99.90;;;;;;5107031;28;20449;-58
2023/11/07 09:35:16;;;;;;;2.47;1.03;;;16.30;99.90;;;;;;5109029;28;20478;-60
2023/11/07 09:37:42;;;;;;;2.50;1.20;;;16.40;99.90;;;;;;5104592;28;20465;-57
2023/11/07 09:40:13;;;;;;;5.33;2.60;;;16.30;99.90;;;;;;5106463;28;20456;-59
2023/11/07 09:42:41;;;;;;;6.20;2.00;;;16.30;99.90;;;;;;5105136;28;20454;-59
2023/11/07 09:45:12;;;;;;;3.77;2.03;;;15.90;99.90;;;;;;5097070;28;20435;-58
2023/11/07 09:47:39;;;;;;;2.63;1.77;;;15.50;99.90;;;;;;5104475;28;20441;-60
2023/11/07 09:50:10;;;;;;;14.33;5.80;;;15.20;99.90;;;;;;5106040;28;20421;-60
2023/11/07 09:52:39;;;;;;;5.27;2.03;;;14.80;99.90;;;;;;5107469;28;20433;-55
2023/11/07 09:55:09;;;;;;;1.30;1.17;;;14.70;99.90;;;;;;5113014;28;20499;-60
2023/11/07 09:57:40;;;;;;;2.50;2.00;;;14.60;99.90;;;;;;5102018;28;20461;-60
2023/11/07 10:00:10;;;;;;;2.50;1.37;;;14.40;99.90;;;;;;5114144;28;20449;-58
2023/11/07 10:02:40;;;;;;;4.13;1.23;;;14.40;99.90;;;;;;5103777;28;20460;-60
2023/11/07 10:05:10;;;;;;;3.37;1.57;;;14.50;99.90;;;;;;5102150;28;20462;-59
2023/11/07 10:07:38;;;;;;;1.80;1.00;;;14.40;99.90;;;;;;5096493;28;20447;-55
2023/11/07 10:10:06;;;;;;;1.97;1.20;;;14.50;99.90;;;;;;5095915;28;20469;-56
2023/11/07 10:12:34;;;;;;;1.50;0.90;;;14.50;99.90;;;;;;5110035;28;20425;-56
2023/11/07 10:15:16;;;;;;;1.10;0.80;;;14.60;99.90;;;;;;5104090;28;20477;-57
2023/11/07 10:17:58;;;;;;;3.00;1.43;;;14.70;99.90;;;;;;5102908;28;20501;-56
2023/11/07 10:20:27;;;;;;;2.13;1.60;;;14.70;99.90;;;;;;5096073;28;20461;-58
2023/11/07 10:22:55;;;;;;;2.00;1.20;;;14.60;99.90;;;;;;5087361;28;20495;-56
2023/11/07 10:25:30;;;;;;;3.47;1.20;;;14.50;99.90;;;;;;5092253;28;20785;-55
2023/11/07 10:28:02;;;;;;;2.90;1.40;;;14.40;99.90;;;;;;5082001;28;20903;-53
2023/11/07 10:30:36;;;;;;;2.37;1.27;;;14.40;99.90;;;;;;5083904;28;20426;-56
2023/11/07 10:33:04;;;;;;;6.13;1.30;;;14.30;99.90;;;;;;5088769;28;20453;-52
2023/11/07 10:35:50;;;;;;;2.57;1.30;;;14.40;99.90;;;;;;5108821;28;20537;-57
2023/11/07 10:38:17;;;;;;;3.87;1.33;;;14.50;99.90;;;;;;5083551;28;20472;-57
2023/11/07 10:40:44;;;;;;;5.30;1.63;;;14.50;99.90;;;;;;5105001;28;20527;-53
2023/11/07 10:43:11;;;;;;;2.57;1.10;;;14.50;99.90;;;;;;5104870;28;20450;-56
2023/11/07 10:45:41;;;;;;;4.73;1.23;;;14.40;99.90;;;;;;5106018;28;20743;-57
2023/11/07 10:48:09;;;;;;;5.90;1.23;;;14.40;99.90;;;;;;5086346;28;20477;-54
2023/11/07 10:50:40;;;;;;;1.77;1.00;;;14.40;99.90;;;;;;5109764;28;20423;-55
2023/11/07 10:53:07;;;;;;;2.53;2.30;;;14.40;99.90;;;;;;5098876;28;20482;-57
2023/11/07 10:55:35;;;;;;;1.30;1.10;;;14.30;99.90;;;;;;5100725;28;20456;-52
2023/11/07 10:58:05;;;;;;;4.90;1.40;;;14.30;99.90;;;;;;5098375;28;20415;-53
2023/11/07 11:00:34;;;;;;;2.73;1.20;;;14.20;99.90;;;;;;5106204;28;20469;-56
2023/11/07 11:03:04;;;;;;;2.80;1.23;;;14.10;99.90;;;;;;5089083;28;20524;-56
2023/11/07 11:05:34;;;;;;;1.93;1.30;;;14.10;99.90;;;;;;5089965;28;20876;-61
2023/11/07 11:08:04;;;;;;;4.70;1.03;;;14.20;99.90;;;;;;5088799;28;20472;-55
2023/11/07 11:10:34;;;;;;;1.63;1.40;;;14.10;99.90;;;;;;5076286;28;20461;-57
2023/11/07 11:13:02;;;;;;;1.93;1.37;;;14.20;99.90;;;;;;5102225;28;20480;-48
2023/11/07 11:15:31;;;;;;;4.23;1.53;;;14.20;99.90;;;;;;5116837;28;20484;-52
2023/11/07 11:18:05;;;;;;;2.60;1.80;;;14.30;99.90;;;;;;5115886;28;20465;-55
2023/11/07 11:20:43;;;;;;;1.90;1.17;;;14.30;99.90;;;;;;5100040;28;20425;-54
2023/11/07 11:23:19;;;;;;;3.50;1.40;;;14.40;99.90;;;;;;5095995;28;20437;-56
2023/11/07 11:26:01;;;;;;;2.23;1.30;;;14.60;99.90;;;;;;5100994;28;20481;-55
2023/11/07 11:28:38;;;;;;;3.50;1.10;;;14.60;99.90;;;;;;5096365;28;20441;-56
2023/11/07 11:31:08;;;;;;;3.60;0.90;;;14.60;99.90;;;;;;5104112;28;20539;-49
2023/11/07 11:33:35;;;;;;;3.27;1.10;;;14.60;99.90;;;;;;5122605;27;20456;-52
2023/11/07 11:36:23;;;;;;;2.13;1.23;;;14.50;99.90;;;;;;5122494;28;20465;-54
2023/11/07 11:38:51;;;;;;;3.83;1.90;;;14.50;99.90;;;;;;5118488;28;20425;-55
2023/11/07 11:41:18;;;;;;;1.80;1.13;;;14.40;99.90;;;;;;5110048;28;20445;-61
2023/11/07 11:44:12;;;;;;;7.27;1.43;;;14.40;99.90;;;;;;5098439;28;20491;-57
2023/11/07 11:46:39;;;;;;;2.90;1.70;;;14.30;99.90;;;;;;5107307;28;20503;-57
2023/11/07 11:49:08;;;;;;;3.00;1.10;;;14.30;99.90;;;;;;5099537;28;20468;-55
2023/11/07 11:51:37;;;;;;;4.50;1.30;;;14.30;99.90;;;;;;5115107;28;20445;-52
2023/11/07 11:54:06;;;;;;;1.73;1.40;;;14.40;99.90;;;;;;5099563;28;20593;-56
2023/11/07 11:56:34;;;;;;;2.93;1.17;;;14.30;99.90;;;;;;5096614;28;20995;-57
2023/11/07 11:59:03;;;;;;;3.13;1.33;;;14.30;99.90;;;;;;5105301;28;20457;-57
2023/11/07 12:01:33;;;;;;;3.23;1.90;;;14.30;99.90;;;;;;5102443;28;20464;-54
2023/11/07 12:04:00;;;;;;;1.13;0.97;;;14.30;99.90;;;;;;5113505;28;22045;-53
2023/11/07 12:06:26;;;;;;;10.00;2.67;;;14.20;99.90;;;;;;5092337;28;20771;-57
2023/11/07 12:08:55;;;;;;;10.50;4.37;;;14.20;99.90;;;;;;5095765;28;20450;-57
2023/11/07 12:11:23;;;;;;;2.83;1.43;;;14.20;99.90;;;;;;5111609;27;20458;-53
2023/11/07 12:13:51;;;;;;;2.50;1.40;;;14.00;99.90;;;;;;5105999;28;20449;-51
2023/11/07 12:16:20;;;;;;;2.07;1.40;;;13.90;99.90;;;;;;5109918;27;20477;-60
2023/11/07 12:18:49;;;;;;;4.63;1.20;;;13.90;99.90;;;;;;5088400;28;20454;-54
2023/11/07 12:21:28;;;;;;;2.20;1.20;;;13.80;99.90;;;;;;5093259;28;20459;-54
2023/11/07 12:23:57;;;;;;;6.20;1.63;;;13.80;99.90;;;;;;5090467;28;20462;-58
2023/11/07 12:26:41;;;;;;;3.90;1.93;;;13.80;99.90;;;;;;5092252;28;20446;-56
2023/11/07 12:29:08;;;;;;;2.23;1.50;;;13.90;99.90;;;;;;5113491;28;20449;-60
2023/11/07 12:31:36;;;;;;;2.53;1.03;;;13.90;99.90;;;;;;5096052;28;21068;-56
2023/11/07 12:34:03;;;;;;;3.10;1.20;;;14.00;99.90;;;;;;5106439;28;20450;-54
2023/11/07 12:36:31;;;;;;;3.23;1.10;;;14.00;99.90;;;;;;5109009;28;20461;-57
2023/11/07 12:38:59;;;;;;;2.43;1.17;;;14.00;99.90;;;;;;5100596;28;20897;-56
2023/11/07 12:41:27;;;;;;;2.80;1.47;;;14.10;99.90;;;;;;5096881;28;20489;-46
2023/11/07 12:43:56;;;;;;;1.30;1.10;;;14.10;99.90;;;;;;5110482;28;20453;-48
2023/11/07 12:46:25;;;;;;;4.10;1.60;;;14.00;99.90;;;;;;5094770;28;20964;-56
2023/11/07 12:48:57;;;;;;;1.03;0.93;;;14.00;99.90;;;;;;5106859;27;20529;-51
2023/11/07 12:51:24;;;;;;;1.30;1.00;;;14.10;99.90;;;;;;5093728;28;20450;-52
2023/11/07 12:53:51;;;;;;;1.43;1.07;;;14.20;99.90;;;;;;5101832;28;20489;-56
2023/11/07 12:56:20;;;;;;;1.57;1.20;;;14.20;99.90;;;;;;5113290;28;20481;-52